Time;durP1;ratioP1;P1;durP2;ratioP2;P2;SDS_P1;SDS_P2;PMS_P1;PMS_P2;Temp;Humidity;BMP_temperature;BMP_pressure;BME280_temperature;BME280_humidity;BME280_pressure;Samples;Min_cycle;Max_cycle;Signal;HPM_P1;HPM_P2
2022/05/31 00:00:15;;;;;;;5.00;4.05;;;8.60;99.90;;;;;;5058306;28;20127;-81
2022/05/31 00:02:42;;;;;;;5.63;3.60;;;8.60;99.90;;;;;;5049132;28;20043;-81
2022/05/31 00:05:09;;;;;;;5.53;3.90;;;8.60;99.90;;;;;;5049278;28;20048;-80
2022/05/31 00:07:39;;;;;;;8.45;4.00;;;8.50;99.90;;;;;;5080292;28;20100;-81
2022/05/31 00:10:06;;;;;;;4.45;4.05;;;8.90;99.90;;;;;;5065135;28;20036;-81
2022/05/31 00:12:32;;;;;;;8.75;4.47;;;8.40;99.90;;;;;;5048889;28;20094;-80
2022/05/31 00:14:59;;;;;;;4.10;3.70;;;8.80;99.90;;;;;;5059786;28;20043;-81
2022/05/31 00:17:25;;;;;;;4.85;4.20;;;8.40;99.90;;;;;;5062854;28;20388;-80
2022/05/31 00:19:50;;;;;;;5.55;4.45;;;8.40;99.90;;;;;;5058233;28;20063;-81
2022/05/31 00:22:19;;;;;;;4.30;3.90;;;8.70;99.90;;;;;;5060753;28;20043;-81
2022/05/31 00:25:05;;;;;;;5.57;4.47;;;8.50;99.90;;;;;;5067696;28;20121;-81
2022/05/31 00:27:30;;;;;;;5.30;4.45;;;8.50;99.90;;;;;;5060424;28;20047;-81
2022/05/31 00:29:56;;;;;;;4.78;4.18;;;8.50;99.90;;;;;;5070576;28;20168;-82
2022/05/31 00:32:30;;;;;;;6.65;4.55;;;8.50;99.90;;;;;;5060622;28;21687;-81
2022/05/31 00:34:58;;;;;;;6.00;4.15;;;8.80;99.90;;;;;;5042142;28;20387;-80
2022/05/31 00:37:24;;;;;;;5.75;4.80;;;8.60;99.90;;;;;;5064952;28;20028;-82
2022/05/31 00:39:50;;;;;;;5.05;4.55;;;8.70;99.90;;;;;;5045375;28;20113;-79
2022/05/31 00:42:20;;;;;;;5.60;4.35;;;8.70;99.90;;;;;;5050335;28;20074;-82
2022/05/31 00:44:46;;;;;;;5.45;4.43;;;8.70;99.90;;;;;;5045442;28;20040;-82
2022/05/31 00:47:24;;;;;;;4.55;4.05;;;8.70;99.90;;;;;;5047505;28;20039;-81
2022/05/31 00:50:14;;;;;;;6.70;4.68;;;8.80;99.90;;;;;;5061674;28;20069;-79
2022/05/31 00:52:47;;;;;;;4.70;4.30;;;8.80;99.90;;;;;;5061751;28;20147;-80
2022/05/31 00:55:37;;;;;;;10.63;4.55;;;8.90;99.90;;;;;;5078365;28;20456;-80
2022/05/31 00:58:07;;;;;;;5.93;4.57;;;8.90;99.90;;;;;;5071057;28;20107;-79
2022/05/31 01:00:36;;;;;;;6.53;4.90;;;8.90;99.90;;;;;;5077299;28;20128;-77
2022/05/31 01:03:04;;;;;;;6.70;4.15;;;8.90;99.90;;;;;;5059483;28;20033;-81
2022/05/31 01:05:30;;;;;;;6.95;4.60;;;9.00;99.90;;;;;;5055678;28;20051;-80
2022/05/31 01:07:55;;;;;;;4.88;4.38;;;9.00;99.90;;;;;;5056181;28;20048;-81
2022/05/31 01:10:21;;;;;;;4.97;4.47;;;9.00;99.90;;;;;;5045439;28;20035;-82
2022/05/31 01:12:49;;;;;;;4.82;4.43;;;9.00;99.90;;;;;;5056577;28;20400;-82
2022/05/31 01:15:17;;;;;;;6.03;4.53;;;9.00;99.90;;;;;;5057232;28;20075;-81
2022/05/31 01:17:43;;;;;;;8.93;4.78;;;9.00;99.90;;;;;;5060265;28;20415;-81
2022/05/31 01:20:15;;;;;;;5.35;4.80;;;9.00;99.90;;;;;;5056390;28;20036;-81
2022/05/31 01:22:52;;;;;;;7.90;5.20;;;9.10;99.90;;;;;;5058132;28;20135;-81
2022/05/31 01:25:21;;;;;;;6.53;4.80;;;9.10;99.90;;;;;;5072462;28;20035;-82
2022/05/31 01:28:10;;;;;;;9.73;5.30;;;9.30;99.90;;;;;;5077732;28;20139;-81
2022/05/31 01:30:42;;;;;;;8.93;5.03;;;9.10;99.90;;;;;;5074783;28;20070;-79
2022/05/31 01:33:22;;;;;;;8.07;5.50;;;9.10;99.90;;;;;;5040529;28;20052;-79
2022/05/31 01:35:48;;;;;;;4.93;4.43;;;9.50;99.90;;;;;;5061781;28;20040;-82
2022/05/31 01:38:27;;;;;;;5.50;4.40;;;9.20;99.90;;;;;;5059575;28;20060;-81
2022/05/31 01:41:27;;;;;;;6.43;4.95;;;9.60;99.90;;;;;;5071309;28;20036;-80
2022/05/31 01:43:58;;;;;;;6.72;4.63;;;9.20;99.90;;;;;;5051104;28;20391;-83
2022/05/31 01:46:31;;;;;;;6.50;4.80;;;9.20;99.90;;;;;;5056582;28;20045;-82
2022/05/31 01:48:59;;;;;;;5.28;4.78;;;9.30;99.90;;;;;;5082516;28;20040;-82
2022/05/31 01:51:26;;;;;;;4.95;4.45;;;9.40;99.90;;;;;;5081806;28;20494;-81
2022/05/31 01:53:55;;;;;;;8.82;4.57;;;9.30;99.90;;;;;;5049040;28;20036;-79
2022/05/31 01:56:21;;;;;;;5.60;4.63;;;9.40;99.90;;;;;;5071991;28;20428;-79
2022/05/31 01:58:48;;;;;;;5.45;4.78;;;9.30;99.90;;;;;;5047485;28;20055;-80
2022/05/31 02:01:15;;;;;;;5.05;4.35;;;9.40;99.90;;;;;;5052125;28;20063;-81
2022/05/31 02:03:45;;;;;;;9.60;4.57;;;9.30;99.90;;;;;;5047095;28;20044;-81
2022/05/31 02:06:37;;;;;;;4.97;4.47;;;9.30;99.90;;;;;;5061994;28;20059;-82
2022/05/31 02:09:08;;;;;;;6.70;4.43;;;9.30;99.90;;;;;;5068459;28;20036;-79
2022/05/31 02:11:35;;;;;;;6.47;4.63;;;9.40;99.90;;;;;;5058678;28;20144;-82
2022/05/31 02:14:01;;;;;;;6.28;4.32;;;9.40;99.90;;;;;;5042990;28;20040;-80
2022/05/31 02:16:28;;;;;;;6.35;4.72;;;9.40;99.90;;;;;;5057594;28;20036;-80
2022/05/31 02:21:39;;;;;;;7.33;4.97;;;9.40;99.90;;;;;;5063319;28;20039;-80
2022/05/31 02:27:46;;;;;;;6.70;5.20;;;9.40;99.90;;;;;;5083325;28;20078;-77
2022/05/31 02:30:13;;;;;;;8.07;5.30;;;9.40;99.90;;;;;;5070569;28;20044;-78
2022/05/31 02:32:39;;;;;;;6.43;5.70;;;9.40;99.90;;;;;;5031514;28;20039;-81
2022/05/31 02:35:09;;;;;;;7.93;5.00;;;9.40;99.90;;;;;;5054816;28;20044;-80
2022/05/31 02:37:36;;;;;;;6.53;5.68;;;9.40;99.90;;;;;;5049873;28;20051;-80
2022/05/31 02:40:03;;;;;;;7.43;5.25;;;9.40;99.90;;;;;;5051608;28;20217;-79
2022/05/31 02:42:28;;;;;;;9.30;5.53;;;9.40;99.90;;;;;;5048185;28;20291;-80
2022/05/31 02:44:54;;;;;;;7.25;4.90;;;9.50;99.90;;;;;;5042854;28;20040;-80
2022/05/31 02:47:21;;;;;;;8.60;4.78;;;9.40;99.90;;;;;;5071552;28;20132;-80
2022/05/31 02:49:47;;;;;;;7.75;5.32;;;9.40;99.90;;;;;;5042995;28;20036;-80
2022/05/31 02:52:13;;;;;;;9.13;4.80;;;9.50;99.90;;;;;;5058301;28;20043;-81
2022/05/31 02:54:39;;;;;;;7.03;5.35;;;9.40;99.90;;;;;;5042949;28;20044;-81
2022/05/31 02:57:05;;;;;;;5.63;4.45;;;9.50;99.90;;;;;;5057473;28;20069;-80
2022/05/31 02:59:31;;;;;;;5.50;4.40;;;9.50;99.90;;;;;;5052109;28;20041;-79
2022/05/31 03:01:57;;;;;;;5.05;4.55;;;9.50;99.90;;;;;;5056137;28;20128;-81
2022/05/31 03:04:26;;;;;;;8.20;4.45;;;9.40;99.90;;;;;;5043729;28;20040;-80
2022/05/31 03:06:52;;;;;;;7.30;4.60;;;9.40;99.90;;;;;;5045017;28;20158;-79
2022/05/31 03:09:17;;;;;;;7.38;4.70;;;9.40;99.90;;;;;;5058435;28;20116;-81
2022/05/31 03:11:53;;;;;;;7.93;4.53;;;9.60;99.90;;;;;;5063601;28;20502;-81
2022/05/31 03:14:49;;;;;;;11.20;4.88;;;9.40;99.90;;;;;;5062280;28;20139;-81
2022/05/31 03:17:38;;;;;;;9.10;4.55;;;9.40;99.90;;;;;;5058537;28;20090;-80
2022/05/31 03:20:23;;;;;;;6.80;4.47;;;9.40;99.90;;;;;;5063736;28;20739;-80
2022/05/31 03:23:04;;;;;;;6.55;4.60;;;9.40;99.90;;;;;;5045658;28;20115;-80
2022/05/31 03:26:08;;;;;;;7.03;4.55;;;9.50;99.90;;;;;;5045259;28;20048;-81
2022/05/31 03:28:35;;;;;;;7.10;4.60;;;9.40;99.90;;;;;;5074186;28;20063;-80
2022/05/31 03:31:04;;;;;;;7.05;4.60;;;9.40;99.90;;;;;;5060097;28;20043;-81
2022/05/31 03:33:32;;;;;;;6.95;4.75;;;9.80;99.90;;;;;;5062059;28;20051;-81
2022/05/31 03:35:58;;;;;;;7.57;4.88;;;9.40;99.90;;;;;;5058770;28;20513;-80
2022/05/31 03:38:24;;;;;;;5.18;4.60;;;9.40;99.90;;;;;;5070406;28;20032;-80
2022/05/31 03:40:58;;;;;;;7.93;4.75;;;9.90;99.90;;;;;;5069750;28;20090;-82
2022/05/31 03:43:30;;;;;;;9.77;4.70;;;9.50;99.90;;;;;;5059865;28;20093;-81
2022/05/31 03:45:56;;;;;;;8.75;4.10;;;9.90;99.90;;;;;;5039605;28;20071;-81
2022/05/31 03:48:22;;;;;;;9.85;4.68;;;9.50;99.90;;;;;;5066548;28;20119;-81
2022/05/31 03:51:09;;;;;;;9.40;4.82;;;9.80;99.90;;;;;;5042902;28;20039;-80
2022/05/31 03:53:35;;;;;;;7.00;4.40;;;9.50;99.90;;;;;;5051988;28;20095;-80
2022/05/31 03:59:26;;;;;;;6.28;4.47;;;9.60;99.90;;;;;;5079279;28;20044;-79
2022/05/31 04:01:53;;;;;;;5.18;4.68;;;10.00;99.90;;;;;;5061577;28;20175;-80
2022/05/31 04:04:21;;;;;;;10.40;4.72;;;9.60;99.90;;;;;;5070383;28;20036;-80
2022/05/31 04:06:47;;;;;;;6.43;4.55;;;9.60;99.90;;;;;;5069731;28;20040;-81
2022/05/31 04:09:13;;;;;;;5.50;4.43;;;9.70;99.90;;;;;;5071956;28;20027;-80
2022/05/31 04:11:39;;;;;;;7.53;4.90;;;9.70;99.90;;;;;;5057954;28;20056;-81
2022/05/31 04:14:04;;;;;;;7.30;4.80;;;9.70;99.90;;;;;;5078067;28;20041;-81
2022/05/31 04:16:30;;;;;;;4.95;4.35;;;9.70;99.90;;;;;;5058039;28;20488;-81
2022/05/31 04:18:56;;;;;;;6.68;4.53;;;9.70;99.90;;;;;;5065731;28;20048;-82
2022/05/31 04:21:21;;;;;;;7.70;4.85;;;10.00;99.90;;;;;;5046743;28;20037;-80
2022/05/31 04:23:58;;;;;;;8.63;4.88;;;9.70;99.90;;;;;;5061743;28;20170;-81
2022/05/31 04:26:25;;;;;;;6.70;4.63;;;9.80;99.90;;;;;;5054505;28;20044;-81
2022/05/31 04:28:51;;;;;;;7.18;5.50;;;9.80;99.90;;;;;;5075638;28;20066;-82
2022/05/31 04:31:17;;;;;;;6.03;5.03;;;9.80;99.90;;;;;;5058089;28;20459;-80
2022/05/31 04:33:43;;;;;;;5.50;4.45;;;9.80;99.90;;;;;;5060272;28;20421;-81
2022/05/31 04:36:14;;;;;;;7.10;5.05;;;9.90;99.90;;;;;;5051242;28;20040;-82
2022/05/31 04:38:40;;;;;;;6.18;5.35;;;10.00;99.90;;;;;;5068735;28;20059;-80
2022/05/31 04:41:07;;;;;;;5.70;4.90;;;9.90;99.90;;;;;;5056944;28;20031;-81
2022/05/31 04:43:33;;;;;;;8.68;4.93;;;10.10;99.90;;;;;;5039397;28;20110;-82
2022/05/31 04:46:09;;;;;;;7.32;4.72;;;10.50;99.90;;;;;;5067863;28;20082;-81
2022/05/31 04:48:36;;;;;;;6.20;5.15;;;10.30;99.90;;;;;;5072299;28;20037;-79
2022/05/31 04:51:01;;;;;;;7.53;5.13;;;10.30;99.90;;;;;;5055176;28;20089;-80
2022/05/31 04:53:27;;;;;;;7.95;5.38;;;10.10;99.90;;;;;;5063288;28;20166;-82
2022/05/31 04:56:03;;;;;;;8.02;5.40;;;10.10;99.90;;;;;;5076075;28;20039;-81
2022/05/31 04:58:28;;;;;;;9.15;5.18;;;10.20;99.90;;;;;;5082792;28;20044;-80
2022/05/31 05:00:54;;;;;;;9.98;5.22;;;10.30;99.90;;;;;;5063920;28;20117;-80
2022/05/31 05:03:20;;;;;;;6.68;5.30;;;10.20;99.90;;;;;;5061585;28;20467;-81
2022/05/31 05:05:46;;;;;;;6.88;5.40;;;10.70;99.90;;;;;;5069661;28;20044;-85
2022/05/31 05:08:11;;;;;;;7.10;5.35;;;10.40;99.90;;;;;;5073948;28;20487;-81
2022/05/31 05:10:45;;;;;;;10.10;5.40;;;10.40;99.90;;;;;;5074293;28;20032;-81
2022/05/31 05:13:11;;;;;;;6.15;3.28;;;10.70;99.90;;;;;;5080673;28;20095;-80
2022/05/31 05:15:41;;;;;;;13.85;5.80;;;11.20;99.90;;;;;;5073089;28;20418;-81
2022/05/31 05:18:07;;;;;;;7.32;5.55;;;11.00;99.90;;;;;;5083927;28;20085;-81
2022/05/31 05:20:39;;;;;;;8.80;5.40;;;11.00;99.90;;;;;;5069588;28;20322;-81
2022/05/31 05:23:08;;;;;;;8.65;5.68;;;11.10;99.90;;;;;;5054514;28;20170;-81
2022/05/31 05:25:34;;;;;;;8.48;5.82;;;10.90;99.90;;;;;;5062106;28;20056;-80
2022/05/31 05:28:00;;;;;;;9.05;6.22;;;11.00;99.90;;;;;;5088571;28;20464;-80
2022/05/31 05:30:39;;;;;;;11.05;6.60;;;11.30;99.90;;;;;;5090953;28;20040;-79
2022/05/31 05:33:05;;;;;;;8.13;5.72;;;11.00;99.90;;;;;;5068159;28;20040;-78
2022/05/31 05:35:31;;;;;;;8.50;5.85;;;11.00;99.90;;;;;;5066294;28;20446;-80
2022/05/31 05:37:57;;;;;;;9.45;6.53;;;11.00;99.90;;;;;;5058643;28;20123;-80
2022/05/31 05:40:22;;;;;;;8.95;6.18;;;11.10;99.90;;;;;;5056363;28;20071;-80
2022/05/31 05:42:48;;;;;;;10.02;5.72;;;11.10;99.90;;;;;;5047239;28;20089;-80
2022/05/31 05:45:14;;;;;;;8.65;5.55;;;11.10;99.90;;;;;;5061626;28;20399;-82
2022/05/31 05:47:40;;;;;;;10.38;6.03;;;11.10;99.90;;;;;;5064035;28;20427;-82
2022/05/31 05:50:07;;;;;;;8.98;5.40;;;11.10;99.90;;;;;;5062243;28;20148;-82
2022/05/31 05:52:33;;;;;;;10.20;6.10;;;11.20;99.90;;;;;;5055667;28;20043;-80
2022/05/31 05:54:59;;;;;;;10.52;5.20;;;11.20;99.90;;;;;;5053208;28;20117;-81
2022/05/31 05:57:24;;;;;;;12.70;6.15;;;11.30;99.90;;;;;;5063426;28;20063;-81
2022/05/31 05:59:50;;;;;;;9.75;6.00;;;11.30;99.90;;;;;;5075218;28;20036;-81
2022/05/31 06:02:24;;;;;;;8.43;5.65;;;11.40;99.90;;;;;;5069793;28;20044;-82
2022/05/31 06:04:57;;;;;;;7.95;5.53;;;11.40;99.90;;;;;;5074562;28;20151;-80
2022/05/31 06:07:39;;;;;;;15.38;5.90;;;11.40;99.90;;;;;;5064087;28;20139;-79
2022/05/31 06:10:23;;;;;;;8.30;5.25;;;11.50;99.90;;;;;;5069351;28;20044;-79
2022/05/31 06:13:17;;;;;;;7.20;5.45;;;11.50;99.90;;;;;;5048242;28;20041;-80
2022/05/31 06:15:49;;;;;;;8.33;5.63;;;11.60;99.90;;;;;;5065816;28;20071;-82
2022/05/31 06:18:24;;;;;;;8.60;5.65;;;11.80;99.90;;;;;;5059928;28;20520;-81
2022/05/31 06:20:56;;;;;;;6.75;5.50;;;11.80;99.90;;;;;;5050119;28;20336;-81
2022/05/31 06:23:21;;;;;;;8.13;5.80;;;11.90;99.90;;;;;;5068699;28;20052;-82
2022/05/31 06:25:47;;;;;;;10.07;5.38;;;11.90;99.90;;;;;;5080363;28;20386;-81
2022/05/31 06:28:13;;;;;;;6.63;5.00;;;12.10;99.90;;;;;;5073145;28;20390;-81
2022/05/31 06:30:39;;;;;;;7.88;4.70;;;12.20;99.90;;;;;;5070339;28;20046;-81
2022/05/31 06:33:05;;;;;;;11.05;5.78;;;12.20;99.90;;;;;;5060161;28;20139;-79
2022/05/31 06:35:31;;;;;;;7.85;4.28;;;12.40;99.90;;;;;;5072629;28;20052;-80
2022/05/31 06:37:57;;;;;;;10.30;4.40;;;12.40;99.90;;;;;;5079067;28;20100;-81
2022/05/31 06:40:23;;;;;;;6.57;3.78;;;12.50;99.90;;;;;;5040147;28;20506;-80
2022/05/31 06:42:49;;;;;;;8.18;4.70;;;12.50;99.90;;;;;;5059322;28;20036;-79
2022/05/31 06:45:16;;;;;;;6.43;4.60;;;12.60;99.90;;;;;;5063976;28;20062;-81
2022/05/31 06:47:45;;;;;;;9.05;4.10;;;12.60;99.90;;;;;;5055571;28;20056;-79
2022/05/31 06:50:12;;;;;;;7.50;4.72;;;12.80;99.90;;;;;;5069399;28;20063;-78
2022/05/31 06:58:07;;;;;;;8.50;4.30;;;13.00;99.90;;;;;;5064331;28;20047;-79
2022/05/31 07:00:33;;;;;;;8.23;3.70;;;13.20;99.90;;;;;;5062939;28;20035;-80
2022/05/31 07:02:59;;;;;;;5.78;4.05;;;13.20;99.90;;;;;;5058352;28;20155;-80
2022/05/31 07:05:25;;;;;;;10.27;4.20;;;13.30;99.90;;;;;;5057333;28;20048;-79
2022/05/31 07:07:52;;;;;;;10.27;4.43;;;13.40;99.90;;;;;;5070080;28;20059;-80
2022/05/31 07:10:19;;;;;;;5.55;3.97;;;13.60;99.90;;;;;;5074176;28;20043;-80
2022/05/31 07:12:44;;;;;;;6.78;3.60;;;13.70;99.90;;;;;;5073669;28;20067;-80
2022/05/31 07:15:11;;;;;;;11.55;4.03;;;13.70;99.90;;;;;;5061078;28;20418;-81
2022/05/31 07:17:36;;;;;;;6.10;4.10;;;13.90;99.90;;;;;;5037466;28;20056;-80
2022/05/31 07:20:04;;;;;;;5.57;3.83;;;14.10;99.90;;;;;;5056690;28;20050;-80
2022/05/31 07:22:30;;;;;;;5.50;3.58;;;14.20;99.90;;;;;;5071374;28;20105;-80
2022/05/31 07:24:56;;;;;;;9.32;3.65;;;14.20;99.90;;;;;;5061744;28;20060;-81
2022/05/31 07:27:22;;;;;;;7.78;3.75;;;14.20;99.90;;;;;;5076642;28;20027;-80
2022/05/31 07:29:47;;;;;;;6.30;3.58;;;14.20;99.90;;;;;;5058940;28;20048;-79
2022/05/31 07:32:13;;;;;;;9.00;3.72;;;14.30;99.90;;;;;;5061326;28;20398;-80
2022/05/31 07:34:39;;;;;;;6.30;3.70;;;14.40;99.90;;;;;;5066496;28;20032;-82
2022/05/31 07:37:05;;;;;;;4.07;3.53;;;14.50;99.90;;;;;;5059221;28;20383;-81
2022/05/31 07:39:30;;;;;;;5.10;3.67;;;14.50;99.90;;;;;;5062290;28;20114;-80
2022/05/31 07:41:56;;;;;;;5.38;3.95;;;14.50;99.90;;;;;;5074202;28;20071;-81
2022/05/31 07:44:23;;;;;;;6.22;3.72;;;14.70;99.90;;;;;;5054254;28;20147;-81
2022/05/31 07:46:49;;;;;;;6.50;3.53;;;14.80;99.90;;;;;;5073351;28;20032;-80
2022/05/31 07:49:15;;;;;;;8.85;4.13;;;14.90;99.90;;;;;;5071915;28;20110;-83
2022/05/31 07:51:41;;;;;;;6.93;3.75;;;14.90;99.90;;;;;;5062713;28;20064;-83
2022/05/31 07:54:07;;;;;;;8.18;3.70;;;15.00;99.90;;;;;;5074682;28;20433;-81
2022/05/31 07:56:32;;;;;;;5.10;3.40;;;15.10;99.90;;;;;;5083016;28;20068;-80
2022/05/31 07:58:58;;;;;;;5.30;3.20;;;15.20;99.90;;;;;;5060240;28;20040;-79
2022/05/31 08:01:27;;;;;;;5.15;3.22;;;15.00;99.90;;;;;;5053918;28;20036;-82
2022/05/31 08:03:56;;;;;;;5.57;3.22;;;15.10;99.90;;;;;;5071209;28;20053;-82
2022/05/31 08:06:30;;;;;;;5.47;3.35;;;15.40;99.90;;;;;;5067749;28;20048;-82
2022/05/31 08:08:58;;;;;;;4.50;3.03;;;15.60;99.90;;;;;;5055496;28;20198;-81
2022/05/31 08:11:28;;;;;;;9.88;3.30;;;15.60;99.90;;;;;;5041819;28;20052;-80
2022/05/31 08:13:54;;;;;;;8.77;3.80;;;15.80;99.90;;;;;;5081080;28;20063;-76
2022/05/31 08:16:22;;;;;;;9.90;4.03;;;15.80;99.90;;;;;;5089087;28;20048;-76
2022/05/31 08:18:49;;;;;;;7.05;3.47;;;16.00;99.90;;;;;;5070517;28;20105;-80
2022/05/31 08:21:17;;;;;;;6.22;3.70;;;16.20;99.90;;;;;;5096946;28;20052;-79
2022/05/31 08:23:44;;;;;;;5.82;3.53;;;16.30;99.90;;;;;;5077898;28;20031;-81
2022/05/31 08:26:10;;;;;;;7.47;3.00;;;16.40;99.90;;;;;;5084270;28;20387;-81
2022/05/31 08:28:36;;;;;;;5.90;2.97;;;16.40;99.90;;;;;;5081524;28;20479;-84
2022/05/31 08:31:14;;;;;;;6.93;2.92;;;16.50;99.90;;;;;;5057561;28;20055;-82
2022/05/31 08:33:41;;;;;;;7.00;3.35;;;16.70;99.90;;;;;;5085653;28;20600;-80
2022/05/31 08:36:07;;;;;;;6.28;3.20;;;16.90;99.90;;;;;;5073841;28;20040;-81
2022/05/31 08:38:33;;;;;;;11.45;3.30;;;17.00;99.90;;;;;;5068571;28;20045;-82
2022/05/31 08:41:30;;;;;;;7.50;3.20;;;17.10;99.90;;;;;;5053251;28;20086;-80
2022/05/31 08:44:04;;;;;;;5.53;3.30;;;17.10;99.90;;;;;;5077336;28;20063;-82
2022/05/31 08:47:01;;;;;;;9.38;3.33;;;17.10;99.90;;;;;;5093625;28;20736;-82
2022/05/31 08:52:27;;;;;;;6.45;3.30;;;17.20;99.90;;;;;;5090958;28;20040;-84
2022/05/31 08:58:08;;;;;;;8.07;3.30;;;17.50;99.90;;;;;;5100603;28;20124;-79
2022/05/31 09:00:39;;;;;;;4.65;2.88;;;17.50;99.90;;;;;;5067898;28;20386;-79
2022/05/31 09:03:18;;;;;;;17.92;2.92;;;17.70;99.90;;;;;;5058297;28;20777;-82
2022/05/31 09:05:52;;;;;;;9.45;3.17;;;17.90;99.90;;;;;;5067353;28;20079;-80
2022/05/31 09:08:26;;;;;;;12.25;2.90;;;18.00;99.90;;;;;;5081754;28;20113;-75
2022/05/31 09:11:04;;;;;;;7.93;2.93;;;18.10;99.90;;;;;;5078087;28;20043;-76
2022/05/31 09:13:49;;;;;;;7.75;3.42;;;18.10;99.90;;;;;;5082392;28;20052;-79
2022/05/31 09:16:18;;;;;;;7.68;2.90;;;18.10;99.90;;;;;;5052054;28;20523;-82
2022/05/31 09:18:50;;;;;;;12.68;2.17;;;18.20;99.90;;;;;;5074862;28;20048;-78
2022/05/31 09:21:25;;;;;;;4.80;2.55;;;18.40;99.90;;;;;;5079104;28;20051;-78
2022/05/31 09:23:51;;;;;;;14.82;2.50;;;18.20;99.90;;;;;;5060479;28;20056;-78
2022/05/31 09:26:40;;;;;;;4.10;2.15;;;18.60;99.90;;;;;;5069450;28;20059;-78
2022/05/31 09:29:16;;;;;;;9.73;2.20;;;18.50;99.90;;;;;;5093773;28;20097;-80
2022/05/31 09:31:47;;;;;;;9.07;2.10;;;18.60;99.90;;;;;;5099133;28;20105;-81
2022/05/31 09:34:40;;;;;;;7.80;2.03;;;18.60;99.90;;;;;;5081434;28;20216;-80
2022/05/31 09:37:18;;;;;;;6.10;2.13;;;18.50;99.90;;;;;;5069945;28;20044;-75
2022/05/31 09:40:18;;;;;;;6.78;2.00;;;18.40;99.90;;;;;;5090617;28;20048;-80
2022/05/31 09:43:06;;;;;;;7.65;1.80;;;18.50;99.90;;;;;;5010824;28;20104;-81
2022/05/31 09:45:34;;;;;;;9.13;1.60;;;18.80;99.90;;;;;;5005810;28;20103;-77
2022/05/31 09:48:04;;;;;;;6.55;1.60;;;18.80;99.90;;;;;;4999675;28;20130;-78
2022/05/31 09:50:31;;;;;;;3.80;2.03;;;18.90;99.90;;;;;;4977581;28;20061;-77
2022/05/31 09:52:57;;;;;;;3.88;2.08;;;18.90;99.90;;;;;;4983843;28;20130;-79
2022/05/31 09:58:42;;;;;;;3.92;1.80;;;19.20;99.90;;;;;;4992912;28;20046;-79
2022/05/31 10:01:14;;;;;;;6.13;1.95;;;19.30;99.90;;;;;;4984748;28;20070;-81
2022/05/31 10:03:43;;;;;;;12.40;1.60;;;19.30;99.90;;;;;;4996505;28;20133;-80
2022/05/31 10:06:23;;;;;;;5.10;2.35;;;19.40;99.90;;;;;;4974919;28;20065;-81
2022/05/31 10:08:54;;;;;;;10.60;2.13;;;19.80;99.90;;;;;;4992292;28;20097;-79
2022/05/31 10:11:28;;;;;;;6.63;2.65;;;19.80;99.90;;;;;;4973433;28;20046;-79
2022/05/31 10:14:01;;;;;;;6.65;2.90;;;19.50;99.90;;;;;;4974490;28;20097;-78
2022/05/31 10:16:33;;;;;;;7.13;2.55;;;19.20;99.90;;;;;;4968270;28;20050;-81
2022/05/31 10:19:05;;;;;;;4.90;1.70;;;19.30;99.90;;;;;;4997180;27;20062;-80
2022/05/31 10:21:40;;;;;;;6.32;1.90;;;19.40;99.90;;;;;;5070795;28;20118;-83
2022/05/31 10:24:06;;;;;;;;;;;19.50;99.90;;;;;;5070626;28;20521;-78
2022/05/31 10:26:33;;;;;;;9.80;2.70;;;19.10;99.90;;;;;;5081373;27;19964;-80
2022/05/31 10:29:07;;;;;;;7.47;2.00;;;19.20;99.90;;;;;;5052496;27;20061;-78
2022/05/31 10:31:36;;;;;;;5.27;2.57;;;19.30;99.90;;;;;;5089397;28;20222;-77
2022/05/31 10:34:05;;;;;;;11.75;2.45;;;19.30;99.90;;;;;;5088349;28;20062;-78
2022/05/31 10:36:55;;;;;;;5.95;2.25;;;19.10;99.90;;;;;;5074935;28;20044;-79
2022/05/31 10:39:35;;;;;;;6.13;2.80;;;19.00;99.90;;;;;;5097625;28;20040;-78
2022/05/31 10:42:03;;;;;;;3.75;2.90;;;19.10;99.90;;;;;;5064990;28;20402;-79
2022/05/31 10:44:51;;;;;;;3.67;1.48;;;18.80;98.90;;;;;;5099524;27;20537;-78
2022/05/31 10:47:18;;;;;;;;;;;19.20;99.90;;;;;;5060400;27;20104;-77
2022/05/31 10:49:46;;;;;;;6.57;2.55;;;19.40;99.90;;;;;;5096098;27;19919;-82
2022/05/31 10:52:29;;;;;;;4.75;2.47;;;19.30;99.90;;;;;;5109012;27;20127;-82
2022/05/31 10:55:26;;;;;;;6.38;2.47;;;19.10;99.90;;;;;;5078359;28;20040;-82
2022/05/31 10:58:11;;;;;;;6.35;2.50;;;19.20;99.90;;;;;;5058224;28;20121;-82
2022/05/31 11:00:45;;;;;;;;;;;19.10;99.90;;;;;;5092596;27;20206;-78
2022/05/31 11:03:13;;;;;;;3.75;2.53;;;19.00;99.90;;;;;;5095020;28;19919;-79
2022/05/31 11:05:50;;;;;;;4.82;2.47;;;18.90;99.90;;;;;;5114437;27;20051;-81
2022/05/31 11:13:58;;;;;;;4.22;1.95;;;19.20;99.90;;;;;;5074802;28;20083;-82
2022/05/31 11:16:47;;;;;;;5.32;2.42;;;19.30;99.90;;;;;;5063997;28;20046;-82
2022/05/31 11:19:25;;;;;;;5.57;2.22;;;19.40;99.90;;;;;;5093429;28;20523;-82
2022/05/31 11:22:04;;;;;;;12.23;2.38;;;19.50;99.90;;;;;;5070983;28;20130;-82
2022/05/31 11:24:53;;;;;;;6.85;2.42;;;19.70;99.90;;;;;;5075885;28;20056;-82
2022/05/31 11:27:31;;;;;;;4.97;2.60;;;19.90;99.40;;;;;;5109832;28;20074;-82
2022/05/31 11:30:34;;;;;;;5.32;2.30;;;19.90;98.60;;;;;;5107158;28;20405;-82
2022/05/31 11:33:35;;;;;;;4.90;2.30;;;20.30;98.70;;;;;;5103838;28;20119;-83
2022/05/31 11:36:19;;;;;;;4.82;2.40;;;20.70;99.00;;;;;;5082757;28;20379;-81
2022/05/31 11:39:09;;;;;;;4.75;2.47;;;20.80;97.10;;;;;;5069507;28;20108;-82
2022/05/31 11:41:53;;;;;;;5.60;2.70;;;20.60;94.90;;;;;;5086880;28;20050;-81
2022/05/31 11:45:02;;;;;;;7.75;2.83;;;20.80;95.30;;;;;;5093824;28;20082;-82
2022/05/31 11:47:34;;;;;;;6.78;2.50;;;21.20;94.60;;;;;;5113887;28;20031;-82
2022/05/31 11:50:21;;;;;;;5.82;2.75;;;21.50;96.10;;;;;;5085669;28;20259;-82
2022/05/31 11:53:22;;;;;;;5.75;2.60;;;21.50;95.70;;;;;;5084071;28;20070;-81
2022/05/31 11:56:04;;;;;;;8.32;3.10;;;21.90;94.80;;;;;;5090232;28;20130;-82
2022/05/31 11:58:33;;;;;;;6.25;3.05;;;22.30;94.10;;;;;;5085536;28;20055;-81
2022/05/31 12:01:04;;;;;;;6.13;2.85;;;22.70;96.00;;;;;;5096154;28;20049;-82
2022/05/31 12:04:03;;;;;;;4.60;2.20;;;23.40;95.60;;;;;;5096778;28;20071;-81
2022/05/31 12:06:43;;;;;;;9.57;3.08;;;23.20;92.40;;;;;;5085274;28;20128;-84
2022/05/31 12:09:52;;;;;;;10.93;3.72;;;22.60;90.00;;;;;;5075441;28;20039;-84
2022/05/31 12:12:32;;;;;;;5.38;2.30;;;22.40;92.90;;;;;;4996994;28;20098;-85
2022/05/31 12:15:18;;;;;;;4.80;2.20;;;21.80;90.60;;;;;;5004377;28;20042;-81
2022/05/31 12:18:14;;;;;;;8.30;2.25;;;22.10;93.50;;;;;;5004010;28;20095;-81
2022/05/31 12:21:07;;;;;;;8.10;3.05;;;21.70;93.30;;;;;;4990669;28;20034;-82
2022/05/31 12:23:57;;;;;;;6.22;2.20;;;21.30;92.90;;;;;;5008454;28;20050;-80
2022/05/31 12:29:51;;;;;;;8.95;2.85;;;20.60;93.90;;;;;;5010812;28;20037;-77
2022/05/31 12:32:35;;;;;;;7.32;2.50;;;20.10;94.60;;;;;;5005942;28;20037;-82
2022/05/31 12:35:05;;;;;;;4.55;2.08;;;19.90;95.30;;;;;;4985686;28;20065;-81
2022/05/31 12:38:10;;;;;;;9.27;2.20;;;19.70;95.50;;;;;;4998724;28;20046;-82
2022/05/31 12:40:38;;;;;;;5.70;2.35;;;19.50;95.90;;;;;;4949043;28;20045;-81
2022/05/31 12:43:08;;;;;;;5.38;2.05;;;19.20;96.20;;;;;;4939061;28;20054;-79
2022/05/31 12:45:39;;;;;;;5.20;2.03;;;19.10;96.40;;;;;;4946992;28;20047;-82
2022/05/31 12:48:25;;;;;;;6.80;2.55;;;18.80;95.80;;;;;;4959312;28;20060;-83
2022/05/31 12:50:56;;;;;;;4.93;2.00;;;18.70;95.40;;;;;;4990080;28;20048;-81
2022/05/31 12:53:37;;;;;;;4.68;2.13;;;18.60;95.90;;;;;;5008673;28;20089;-84
2022/05/31 12:56:06;;;;;;;4.78;2.28;;;18.40;95.90;;;;;;5007158;28;20058;-84
2022/05/31 12:58:42;;;;;;;4.30;2.40;;;18.30;96.70;;;;;;4991018;28;20053;-83
2022/05/31 13:01:11;;;;;;;8.65;2.08;;;18.20;97.70;;;;;;5008543;28;20072;-79
2022/05/31 13:03:40;;;;;;;7.60;2.00;;;18.30;97.90;;;;;;5014350;28;20037;-84
2022/05/31 13:06:34;;;;;;;5.07;2.20;;;18.30;98.20;;;;;;4992655;28;20108;-80
2022/05/31 13:09:02;;;;;;;5.70;2.28;;;18.20;97.10;;;;;;5029996;28;20053;-80
2022/05/31 13:20:43;;;;;;;5.25;2.35;;;18.50;98.90;;;;;;5034078;28;20166;-80
2022/05/31 13:23:15;;;;;;;7.07;2.50;;;18.50;97.20;;;;;;5047355;28;20147;-81
2022/05/31 13:25:58;;;;;;;5.72;2.50;;;18.50;97.00;;;;;;5040785;28;20059;-80
2022/05/31 13:28:41;;;;;;;6.18;2.20;;;18.70;98.00;;;;;;5035105;28;20528;-80
2022/05/31 13:31:15;;;;;;;4.72;2.40;;;18.90;98.70;;;;;;5017815;28;20072;-81
2022/05/31 13:33:42;;;;;;;6.07;2.88;;;19.00;97.80;;;;;;5025794;28;20131;-80
2022/05/31 13:36:15;;;;;;;5.97;2.92;;;19.10;97.90;;;;;;5041906;28;20072;-80
2022/05/31 13:38:44;;;;;;;4.97;2.88;;;19.00;97.60;;;;;;5046073;28;20468;-80
2022/05/31 13:41:20;;;;;;;7.53;2.33;;;19.10;98.00;;;;;;5039586;28;20052;-80
2022/05/31 13:43:54;;;;;;;4.65;2.40;;;19.00;96.80;;;;;;5043668;28;20052;-81
2022/05/31 13:46:29;;;;;;;6.93;2.03;;;19.00;96.40;;;;;;5027314;28;20057;-83
2022/05/31 13:49:11;;;;;;;4.78;2.28;;;19.10;97.50;;;;;;5051192;28;20110;-81
2022/05/31 13:51:47;;;;;;;6.38;2.53;;;19.10;98.20;;;;;;5066275;28;20495;-81
2022/05/31 13:54:15;;;;;;;5.97;2.55;;;19.00;98.30;;;;;;5076873;28;20059;-82
2022/05/31 13:56:47;;;;;;;9.20;2.85;;;19.00;97.90;;;;;;5092655;28;20051;-78
2022/05/31 13:59:28;;;;;;;4.85;2.80;;;18.90;97.90;;;;;;5081184;27;20058;-79